Time;durP1;ratioP1;P1;durP2;ratioP2;P2;SDS_P1;SDS_P2;PMS_P1;PMS_P2;Temp;Humidity;BMP_temperature;BMP_pressure;BME280_temperature;BME280_humidity;BME280_pressure;Samples;Min_cycle;Max_cycle;Signal;HPM_P1;HPM_P2
2021/01/14 00:02:04;;;;;;;58.75;6.25;;;4.00;15.30;;;;;;5114023;28;20248;-71
2021/01/14 00:04:32;;;;;;;59.22;6.65;;;4.00;12.90;;;;;;5113388;28;20223;-72
2021/01/14 00:06:59;;;;;;;60.15;7.68;;;4.00;6.10;;;;;;5113644;28;20209;-71
2021/01/14 00:09:25;;;;;;;59.47;7.20;;;4.00;6.40;;;;;;5113371;28;20599;-72
2021/01/14 00:11:52;;;;;;;61.58;6.75;;;4.00;1.40;;;;;;5113912;28;20232;-71
2021/01/14 00:14:18;;;;;;;59.65;6.68;;;4.00;1.00;;;;;;5113513;28;20284;-72
2021/01/14 00:16:44;;;;;;;58.95;6.38;;;4.00;1.00;;;;;;5113552;28;20700;-72
2021/01/14 00:19:11;;;;;;;59.72;7.05;;;3.90;1.00;;;;;;5111336;28;20207;-72
2021/01/14 00:21:43;;;;;;;60.75;6.90;;;4.00;1.00;;;;;;5113158;28;20195;-72
2021/01/14 00:24:10;;;;;;;60.13;6.90;;;3.90;1.00;;;;;;5113509;28;20228;-72
2021/01/14 00:26:36;;;;;;;60.97;7.65;;;3.90;1.00;;;;;;5113141;28;20214;-71
2021/01/14 00:29:03;;;;;;;58.60;6.22;;;3.90;1.00;;;;;;5113050;28;20199;-71
2021/01/14 00:31:29;;;;;;;59.42;6.45;;;3.90;1.00;;;;;;5112956;28;20251;-72
2021/01/14 00:33:56;;;;;;;58.72;6.00;;;3.90;1.00;;;;;;5112945;28;20235;-70
2021/01/14 00:36:31;;;;;;;59.08;6.43;;;3.90;1.00;;;;;;5112809;28;20237;-70
2021/01/14 00:38:59;;;;;;;59.00;5.97;;;3.80;1.00;;;;;;5113098;28;20214;-70
2021/01/14 00:41:26;;;;;;;59.50;6.53;;;3.80;1.00;;;;;;5113044;28;20223;-72
2021/01/14 00:43:52;;;;;;;60.60;6.72;;;3.80;1.00;;;;;;5113151;28;20817;-72
2021/01/14 00:46:19;;;;;;;59.22;6.70;;;3.80;1.00;;;;;;5112743;28;20212;-72
2021/01/14 00:48:46;;;;;;;58.88;6.60;;;3.70;1.00;;;;;;5112510;28;20199;-72
2021/01/14 00:51:12;;;;;;;59.70;6.13;;;3.70;1.00;;;;;;5108924;28;20690;-72
2021/01/14 00:53:39;;;;;;;59.58;6.22;;;3.70;1.00;;;;;;5092696;28;20266;-72
2021/01/14 00:56:06;;;;;;;59.03;5.60;;;3.70;1.00;;;;;;5092529;28;20228;-71
2021/01/14 00:58:34;;;;;;;59.60;6.55;;;3.80;1.00;;;;;;5092038;28;20204;-72
2021/01/14 01:01:00;;;;;;;59.85;6.50;;;3.70;1.00;;;;;;5092237;28;20207;-72
2021/01/14 01:03:27;;;;;;;59.53;6.40;;;3.70;1.00;;;;;;5091911;28;20224;-72
2021/01/14 01:05:53;;;;;;;61.50;6.18;;;3.70;1.00;;;;;;5092398;28;20675;-72
2021/01/14 01:08:20;;;;;;;59.42;6.03;;;3.70;1.00;;;;;;5091670;28;20222;-71
2021/01/14 01:10:46;;;;;;;58.33;6.20;;;3.70;1.00;;;;;;5092589;28;20208;-71
2021/01/14 01:13:13;;;;;;;61.35;7.45;;;3.70;1.00;;;;;;5091944;28;20279;-72
2021/01/14 01:15:39;;;;;;;62.55;7.25;;;3.70;1.00;;;;;;5091994;28;20204;-71
2021/01/14 01:18:06;;;;;;;59.60;6.53;;;3.60;1.00;;;;;;5091627;28;20303;-71
2021/01/14 01:20:33;;;;;;;60.03;6.65;;;3.60;1.00;;;;;;5092143;28;20287;-72
2021/01/14 01:22:59;;;;;;;58.10;5.80;;;3.60;1.00;;;;;;5090494;28;20730;-71
2021/01/14 01:25:25;;;;;;;58.38;5.70;;;3.60;1.00;;;;;;5092063;28;20204;-71
2021/01/14 01:27:51;;;;;;;59.78;6.45;;;3.60;1.00;;;;;;5092155;28;20239;-71
2021/01/14 01:30:20;;;;;;;60.00;6.40;;;3.60;1.00;;;;;;5091650;28;20589;-71
2021/01/14 01:32:49;;;;;;;59.67;6.43;;;3.60;1.00;;;;;;5091721;28;20236;-71
2021/01/14 01:35:15;;;;;;;59.22;6.03;;;3.60;1.00;;;;;;5091773;28;20208;-72
2021/01/14 01:37:41;;;;;;;58.42;5.20;;;3.60;1.00;;;;;;5091490;28;20281;-71
2021/01/14 01:40:09;;;;;;;59.10;6.03;;;3.60;1.00;;;;;;5091723;28;20219;-71
2021/01/14 01:42:35;;;;;;;59.67;5.50;;;3.50;1.00;;;;;;5091680;28;20239;-72
2021/01/14 01:45:02;;;;;;;59.72;5.88;;;3.50;1.00;;;;;;5091264;28;20205;-72
2021/01/14 01:47:39;;;;;;;58.80;5.45;;;3.50;1.00;;;;;;5091785;28;20204;-72
2021/01/14 01:50:06;;;;;;;59.28;5.90;;;3.40;1.00;;;;;;5091630;28;20488;-71
2021/01/14 01:52:34;;;;;;;61.10;6.63;;;3.50;1.00;;;;;;5091425;28;20710;-71
2021/01/14 01:55:01;;;;;;;59.85;6.72;;;3.50;1.00;;;;;;5089899;28;20291;-71
2021/01/14 01:57:28;;;;;;;59.92;6.70;;;3.50;1.00;;;;;;5091415;28;20219;-74
2021/01/14 01:59:54;;;;;;;60.58;6.75;;;3.50;1.00;;;;;;5091166;28;20208;-72
2021/01/14 02:02:23;;;;;;;60.58;6.75;;;3.50;1.00;;;;;;5091607;28;20200;-71
2021/01/14 02:04:51;;;;;;;60.42;6.70;;;3.50;1.00;;;;;;5091464;28;20200;-71
2021/01/14 02:07:28;;;;;;;60.08;7.05;;;3.50;1.00;;;;;;5091376;28;20678;-71
2021/01/14 02:09:56;;;;;;;59.33;6.78;;;3.50;1.00;;;;;;5091158;28;20695;-71
2021/01/14 02:12:31;;;;;;;60.05;6.75;;;3.50;1.00;;;;;;5091054;28;20714;-72
2021/01/14 02:14:58;;;;;;;60.97;7.60;;;3.50;1.00;;;;;;5091580;28;20211;-71
2021/01/14 02:17:26;;;;;;;60.15;7.30;;;3.50;1.00;;;;;;5091297;28;20240;-72
2021/01/14 02:19:55;;;;;;;60.35;6.97;;;3.50;1.00;;;;;;5093525;28;20207;-71
2021/01/14 02:22:25;;;;;;;63.17;6.82;;;3.50;1.00;;;;;;5095074;28;20231;-72
2021/01/14 02:25:05;;;;;;;59.53;6.65;;;3.50;1.00;;;;;;5095383;28;20200;-71
2021/01/14 02:27:34;;;;;;;62.25;8.02;;;3.50;1.00;;;;;;5102079;28;20658;-71
2021/01/14 02:30:01;;;;;;;59.05;6.60;;;3.50;1.00;;;;;;5115678;28;20315;-71
2021/01/14 02:32:28;;;;;;;60.85;7.22;;;3.50;1.00;;;;;;5115165;28;20276;-71
2021/01/14 02:34:54;;;;;;;61.90;7.93;;;3.50;1.00;;;;;;5115540;28;20207;-71
2021/01/14 02:37:21;;;;;;;61.13;7.88;;;3.50;1.00;;;;;;5115510;28;20215;-72
2021/01/14 02:39:47;;;;;;;62.72;8.20;;;3.50;1.00;;;;;;5115182;28;20216;-72
2021/01/14 02:42:13;;;;;;;61.95;8.27;;;3.50;1.00;;;;;;5115523;28;20196;-70
2021/01/14 02:44:41;;;;;;;62.25;7.10;;;3.50;1.00;;;;;;5115081;28;20253;-69
2021/01/14 02:47:10;;;;;;;62.03;8.07;;;3.50;1.00;;;;;;5105281;28;20698;-71
2021/01/14 02:49:45;;;;;;;63.17;7.53;;;3.50;1.00;;;;;;5094443;28;20243;-73
2021/01/14 02:52:12;;;;;;;61.55;6.97;;;3.50;1.00;;;;;;5094822;28;20228;-69
2021/01/14 02:54:39;;;;;;;58.42;6.60;;;3.50;1.00;;;;;;5094570;28;20576;-71
2021/01/14 02:57:07;;;;;;;61.13;6.32;;;3.50;1.00;;;;;;5094391;28;20207;-71
2021/01/14 02:59:34;;;;;;;60.92;6.22;;;3.50;1.00;;;;;;5092601;28;20624;-72
2021/01/14 03:02:01;;;;;;;59.95;6.18;;;3.50;1.00;;;;;;5094851;28;20204;-71
2021/01/14 03:04:27;;;;;;;62.78;6.35;;;3.40;1.00;;;;;;5094341;28;20281;-72
2021/01/14 03:06:54;;;;;;;59.72;6.22;;;3.40;1.00;;;;;;5094484;28;20693;-72
2021/01/14 03:09:20;;;;;;;59.30;5.25;;;3.40;1.00;;;;;;5094107;28;20240;-71
2021/01/14 03:11:46;;;;;;;60.90;6.10;;;3.40;1.00;;;;;;5094815;28;20224;-71
2021/01/14 03:14:14;;;;;;;58.13;4.93;;;3.30;1.00;;;;;;5094513;28;20228;-71
2021/01/14 03:16:40;;;;;;;59.20;5.80;;;3.30;1.00;;;;;;5094375;28;20201;-72
2021/01/14 03:19:08;;;;;;;59.85;5.57;;;3.20;1.00;;;;;;5094055;28;20215;-71
2021/01/14 03:21:34;;;;;;;58.63;5.15;;;3.20;1.00;;;;;;5094160;28;20235;-71
2021/01/14 03:24:01;;;;;;;58.85;5.60;;;3.20;1.00;;;;;;5093954;28;20228;-72
2021/01/14 03:26:27;;;;;;;60.47;5.10;;;3.20;1.00;;;;;;5094261;28;20208;-71
2021/01/14 03:28:54;;;;;;;58.63;4.55;;;3.10;1.00;;;;;;5093906;28;20291;-71
2021/01/14 03:31:20;;;;;;;58.03;5.10;;;3.10;1.00;;;;;;5096318;28;20644;-72
2021/01/14 03:33:48;;;;;;;58.42;5.50;;;3.00;1.00;;;;;;5112456;22;20269;-72
2021/01/14 03:36:16;;;;;;;63.25;5.90;;;3.00;1.00;;;;;;5053801;28;20206;-72
2021/01/14 03:38:43;;;;;;;59.15;5.18;;;3.00;1.00;;;;;;5053328;28;20292;-72
2021/01/14 03:41:10;;;;;;;58.85;5.40;;;2.90;1.00;;;;;;5053949;28;20206;-72
2021/01/14 03:43:37;;;;;;;57.38;4.60;;;2.90;1.00;;;;;;5053365;28;20222;-72
2021/01/14 03:46:09;;;;;;;58.65;5.13;;;2.80;1.00;;;;;;5053965;28;20296;-72
2021/01/14 03:48:41;;;;;;;59.83;5.13;;;2.80;1.00;;;;;;5053249;28;20214;-72
2021/01/14 03:51:15;;;;;;;58.67;5.70;;;2.80;1.00;;;;;;5053322;28;20284;-72
2021/01/14 03:53:41;;;;;;;58.75;5.20;;;2.70;1.00;;;;;;5053207;28;20239;-72
2021/01/14 03:56:08;;;;;;;57.88;4.95;;;2.70;1.00;;;;;;5053538;28;20250;-72
2021/01/14 03:58:34;;;;;;;60.33;5.78;;;2.70;1.00;;;;;;5053044;28;20217;-72
2021/01/14 04:01:01;;;;;;;59.67;6.00;;;2.70;1.00;;;;;;5053219;28;20251;-73
2021/01/14 04:03:27;;;;;;;58.55;5.63;;;2.70;1.00;;;;;;5051346;28;20248;-70
2021/01/14 04:05:54;;;;;;;57.97;4.80;;;2.60;1.00;;;;;;5053084;28;20213;-72
2021/01/14 04:08:21;;;;;;;59.83;5.40;;;2.60;1.00;;;;;;5053124;28;20343;-72
2021/01/14 04:10:47;;;;;;;60.90;6.15;;;2.60;1.00;;;;;;5052916;28;20858;-72
2021/01/14 04:13:14;;;;;;;59.55;5.82;;;2.60;1.00;;;;;;5052959;28;20230;-72
2021/01/14 04:15:41;;;;;;;58.95;5.40;;;2.60;1.00;;;;;;5052834;28;20205;-72
2021/01/14 04:18:07;;;;;;;58.08;5.18;;;2.50;1.00;;;;;;5052641;28;20248;-71
2021/01/14 04:20:34;;;;;;;58.33;5.82;;;2.50;1.00;;;;;;5052628;28;20301;-72
2021/01/14 04:23:00;;;;;;;58.03;5.30;;;2.50;1.00;;;;;;5053243;28;20205;-72
2021/01/14 04:25:30;;;;;;;61.13;5.20;;;2.50;1.00;;;;;;5052870;28;20245;-72
2021/01/14 04:27:59;;;;;;;59.42;4.93;;;2.40;1.00;;;;;;5052570;28;20210;-72
2021/01/14 04:30:25;;;;;;;65.82;6.22;;;2.50;1.00;;;;;;5052586;28;20209;-72
2021/01/14 04:32:58;;;;;;;59.50;5.72;;;2.40;1.00;;;;;;5052292;28;20278;-71
2021/01/14 04:35:25;;;;;;;61.30;5.90;;;2.40;1.00;;;;;;5051832;28;20232;-71
2021/01/14 04:37:52;;;;;;;58.50;5.50;;;2.40;1.00;;;;;;5032323;28;20724;-72
2021/01/14 04:40:18;;;;;;;59.22;5.70;;;2.40;1.00;;;;;;5032710;28;20214;-72
2021/01/14 04:42:50;;;;;;;59.33;5.55;;;2.30;1.00;;;;;;5032316;28;20573;-72
2021/01/14 04:45:19;;;;;;;61.58;6.10;;;2.40;1.90;;;;;;5032501;28;20217;-72
2021/01/14 04:47:49;;;;;;;60.92;6.18;;;2.30;2.80;;;;;;5032288;28;20388;-72
2021/01/14 04:50:17;;;;;;;60.15;6.60;;;2.30;3.70;;;;;;5032602;28;20220;-72
2021/01/14 04:52:47;;;;;;;59.97;6.45;;;2.30;5.00;;;;;;5032254;28;20317;-72
2021/01/14 04:55:14;;;;;;;59.63;5.78;;;2.30;6.20;;;;;;5032543;28;20208;-73
2021/01/14 04:57:44;;;;;;;58.90;6.38;;;2.30;6.80;;;;;;5031992;28;20337;-72
2021/01/14 05:00:14;;;;;;;62.25;5.82;;;2.30;6.90;;;;;;5032211;28;20684;-73
2021/01/14 05:02:57;;;;;;;61.63;6.75;;;2.30;8.90;;;;;;5032126;28;20225;-72
2021/01/14 05:05:24;;;;;;;60.33;6.07;;;2.30;9.00;;;;;;5032216;28;20206;-72
2021/01/14 05:08:04;;;;;;;63.08;6.72;;;2.30;8.60;;;;;;5035637;28;20209;-73
2021/01/14 05:10:32;;;;;;;60.08;5.90;;;2.30;12.10;;;;;;5051900;28;20209;-73
2021/01/14 05:12:59;;;;;;;62.45;6.68;;;2.20;11.60;;;;;;5051562;28;20734;-71
2021/01/14 05:15:28;;;;;;;61.42;6.53;;;2.20;11.20;;;;;;5052201;28;20237;-73
2021/01/14 05:17:57;;;;;;;58.60;6.22;;;2.30;14.00;;;;;;5051558;28;20237;-72
2021/01/14 05:20:23;;;;;;;59.97;7.20;;;2.20;13.90;;;;;;5051854;28;20335;-72
2021/01/14 05:22:56;;;;;;;59.80;6.57;;;2.20;14.30;;;;;;5051514;28;20732;-72
2021/01/14 05:25:23;;;;;;;60.92;6.70;;;2.20;16.30;;;;;;5051682;28;20202;-73
2021/01/14 05:27:49;;;;;;;61.65;7.75;;;2.20;15.00;;;;;;5051648;28;20296;-71
2021/01/14 05:30:16;;;;;;;59.67;6.60;;;2.20;14.70;;;;;;5051989;28;20210;-72
2021/01/14 05:32:45;;;;;;;63.13;8.27;;;2.10;17.00;;;;;;5051861;28;20229;-72
2021/01/14 05:35:14;;;;;;;59.90;6.25;;;2.20;18.10;;;;;;5051348;28;20232;-72
2021/01/14 05:37:42;;;;;;;61.67;6.82;;;2.10;16.90;;;;;;5051501;28;20844;-72
2021/01/14 05:40:10;;;;;;;60.50;6.60;;;2.10;17.70;;;;;;5041260;28;20214;-72
2021/01/14 05:42:38;;;;;;;61.20;6.72;;;2.10;17.70;;;;;;5031593;28;20209;-72
2021/01/14 05:45:06;;;;;;;59.33;6.72;;;2.10;16.90;;;;;;5031398;28;20227;-72
2021/01/14 05:47:33;;;;;;;61.83;7.40;;;2.00;11.80;;;;;;5031414;28;20210;-71
2021/01/14 05:50:01;;;;;;;62.08;6.82;;;2.00;12.60;;;;;;5031044;28;20217;-72
2021/01/14 05:52:29;;;;;;;63.08;7.50;;;2.00;12.70;;;;;;5031500;28;20226;-72
2021/01/14 05:55:00;;;;;;;60.80;7.43;;;2.00;12.70;;;;;;5030627;28;20408;-72
2021/01/14 05:57:31;;;;;;;62.85;8.15;;;1.90;13.90;;;;;;5031471;28;20297;-72
2021/01/14 05:59:59;;;;;;;62.33;7.78;;;1.90;14.40;;;;;;5031157;28;20301;-72
2021/01/14 06:02:30;;;;;;;64.10;7.70;;;1.90;14.90;;;;;;5031180;28;20293;-72
2021/01/14 06:04:57;;;;;;;61.03;7.85;;;1.90;15.30;;;;;;5031524;28;20230;-71
2021/01/14 06:07:36;;;;;;;61.92;8.00;;;1.90;16.70;;;;;;5031299;28;20206;-72
2021/01/14 06:10:03;;;;;;;67.93;7.63;;;1.90;17.60;;;;;;5031274;28;20202;-72
2021/01/14 06:12:30;;;;;;;62.10;7.88;;;1.90;18.50;;;;;;5030163;28;20219;-72
2021/01/14 06:14:57;;;;;;;65.53;9.45;;;1.80;19.00;;;;;;5031062;28;20226;-72
2021/01/14 06:17:33;;;;;;;62.53;8.15;;;1.80;19.70;;;;;;5031086;28;20257;-71
2021/01/14 06:20:09;;;;;;;62.45;8.57;;;1.80;20.00;;;;;;5031244;28;20206;-72
2021/01/14 06:22:37;;;;;;;61.58;8.30;;;1.80;19.70;;;;;;5031090;28;20202;-72
2021/01/14 06:25:05;;;;;;;62.95;8.60;;;1.80;20.90;;;;;;5031089;28;20312;-72
2021/01/14 06:27:32;;;;;;;62.10;8.43;;;1.80;21.50;;;;;;5030669;28;20673;-72
2021/01/14 06:30:03;;;;;;;62.85;8.30;;;1.80;21.50;;;;;;5030931;28;20300;-72
2021/01/14 06:32:29;;;;;;;63.60;8.80;;;1.80;21.80;;;;;;5030848;28;20266;-72
2021/01/14 06:34:56;;;;;;;62.03;8.32;;;1.80;22.50;;;;;;5030996;28;20230;-72
2021/01/14 06:37:24;;;;;;;62.55;9.20;;;1.80;22.70;;;;;;5030895;28;20202;-71
2021/01/14 06:39:52;;;;;;;62.00;8.75;;;1.80;22.70;;;;;;5030531;28;20260;-72
2021/01/14 06:42:24;;;;;;;65.45;9.57;;;1.80;23.90;;;;;;5031399;28;20202;-69
2021/01/14 06:44:53;;;;;;;63.42;9.60;;;1.80;23.80;;;;;;5029648;28;20230;-69
2021/01/14 06:47:31;;;;;;;64.85;10.25;;;1.70;23.90;;;;;;5031135;28;20207;-69
2021/01/14 06:50:21;;;;;;;62.40;8.70;;;1.70;24.50;;;;;;5030622;28;20217;-70
2021/01/14 06:52:52;;;;;;;62.45;8.68;;;1.70;25.50;;;;;;5031019;28;20265;-70
2021/01/14 06:55:21;;;;;;;62.75;9.30;;;1.70;24.70;;;;;;5030745;28;20209;-69
2021/01/14 06:58:07;;;;;;;62.35;9.13;;;1.70;24.80;;;;;;5030751;28;20217;-69
2021/01/14 07:00:35;;;;;;;63.78;8.85;;;1.70;25.20;;;;;;5030780;28;20677;-70
2021/01/14 07:03:18;;;;;;;65.20;10.32;;;1.70;25.40;;;;;;5030651;28;20202;-70
2021/01/14 07:06:13;;;;;;;63.95;10.30;;;1.70;26.30;;;;;;5032691;28;20693;-69
2021/01/14 07:08:40;;;;;;;67.45;11.13;;;1.70;26.20;;;;;;5034639;28;20289;-70
2021/01/14 07:11:10;;;;;;;63.25;9.63;;;1.70;26.70;;;;;;5033901;28;20621;-69
2021/01/14 07:13:39;;;;;;;65.65;10.15;;;1.70;27.20;;;;;;5034399;28;20233;-70
2021/01/14 07:16:08;;;;;;;62.88;9.45;;;1.70;27.00;;;;;;5033175;28;20317;-71
2021/01/14 07:18:35;;;;;;;66.22;10.57;;;1.70;27.90;;;;;;5034129;28;20221;-70
2021/01/14 07:21:33;;;;;;;65.03;10.98;;;1.70;28.30;;;;;;5033996;28;20213;-70
2021/01/14 07:24:04;;;;;;;67.30;10.75;;;1.70;28.50;;;;;;5033606;28;20229;-70
2021/01/14 07:26:33;;;;;;;63.55;10.30;;;1.70;31.80;;;;;;5034039;28;20238;-70
2021/01/14 07:29:04;;;;;;;66.20;11.10;;;1.70;36.90;;;;;;5033901;28;20582;-72
2021/01/14 07:31:31;;;;;;;64.32;10.13;;;1.70;35.90;;;;;;5033966;28;20210;-71
2021/01/14 07:33:57;;;;;;;62.92;9.50;;;1.70;35.20;;;;;;5033688;28;20244;-72
2021/01/14 07:36:26;;;;;;;67.60;11.10;;;1.70;34.60;;;;;;5033597;28;20221;-72
2021/01/14 07:38:54;;;;;;;65.65;10.50;;;1.70;37.70;;;;;;5033713;28;20293;-72
2021/01/14 07:41:21;;;;;;;63.28;9.55;;;1.70;36.60;;;;;;5033548;28;20389;-72
2021/01/14 07:43:49;;;;;;;65.65;10.60;;;1.70;37.10;;;;;;5033780;28;20225;-72
2021/01/14 07:46:17;;;;;;;64.00;10.70;;;1.80;37.60;;;;;;5033745;28;20212;-72
2021/01/14 07:48:44;;;;;;;66.03;10.43;;;1.70;35.60;;;;;;5050459;28;20260;-69
2021/01/14 07:51:11;;;;;;;65.38;10.32;;;1.80;40.90;;;;;;5053715;28;20216;-70
2021/01/14 07:53:37;;;;;;;66.32;11.70;;;1.80;42.10;;;;;;5053258;28;20608;-69
2021/01/14 07:56:22;;;;;;;65.53;10.82;;;1.80;40.30;;;;;;5053523;28;20211;-70
2021/01/14 07:58:53;;;;;;;65.75;10.95;;;1.80;39.20;;;;;;5053492;28;20221;-70
2021/01/14 08:01:20;;;;;;;65.18;11.68;;;1.80;40.50;;;;;;5053189;28;20205;-70
2021/01/14 08:03:46;;;;;;;65.30;10.43;;;1.80;41.20;;;;;;5053372;28;20228;-70
2021/01/14 08:06:17;;;;;;;64.63;10.82;;;1.80;40.90;;;;;;5053429;28;20558;-70
2021/01/14 08:08:55;;;;;;;66.22;11.52;;;1.80;45.30;;;;;;5052679;28;20210;-70
2021/01/14 08:11:23;;;;;;;65.00;11.07;;;1.90;43.40;;;;;;5053116;28;20213;-70
2021/01/14 08:14:16;;;;;;;65.38;11.80;;;1.90;47.60;;;;;;5052660;28;20655;-70
2021/01/14 08:16:45;;;;;;;69.68;12.73;;;1.90;39.20;;;;;;5052215;28;20309;-70
2021/01/14 08:19:36;;;;;;;64.82;11.88;;;1.90;38.40;;;;;;5050379;28;20216;-71
2021/01/14 08:22:10;;;;;;;67.45;12.45;;;1.90;37.90;;;;;;5047901;28;20202;-71
2021/01/14 08:24:45;;;;;;;66.70;12.30;;;1.90;45.10;;;;;;5052692;28;20228;-71
2021/01/14 08:27:12;;;;;;;67.18;11.43;;;1.90;40.90;;;;;;5053021;28;20208;-70
2021/01/14 08:29:50;;;;;;;67.80;12.43;;;1.90;38.30;;;;;;5052471;28;20209;-71
2021/01/14 08:32:43;;;;;;;65.65;11.20;;;1.90;34.40;;;;;;5052730;28;20237;-71
2021/01/14 08:35:21;;;;;;;66.82;11.73;;;1.90;34.50;;;;;;5052448;28;20644;-71
2021/01/14 08:37:49;;;;;;;66.32;11.70;;;2.00;38.00;;;;;;5052489;28;20206;-73
2021/01/14 08:40:18;;;;;;;67.55;13.48;;;2.00;33.70;;;;;;5052600;28;20214;-71
2021/01/14 08:42:46;;;;;;;68.75;13.70;;;2.00;38.90;;;;;;5052522;28;20198;-71
2021/01/14 08:45:19;;;;;;;65.13;11.70;;;2.00;37.90;;;;;;5052532;28;20205;-71
2021/01/14 08:48:06;;;;;;;66.57;12.43;;;2.00;46.20;;;;;;5052118;28;20213;-71
2021/01/14 08:50:46;;;;;;;66.15;12.13;;;2.00;45.50;;;;;;5050396;28;20695;-71
2021/01/14 08:53:23;;;;;;;67.45;12.13;;;2.00;41.60;;;;;;5052079;28;20252;-71
2021/01/14 08:55:52;;;;;;;69.05;12.50;;;2.00;39.90;;;;;;5052338;28;20296;-70
2021/01/14 08:58:19;;;;;;;67.97;13.20;;;2.10;39.40;;;;;;5051948;28;20209;-71
2021/01/14 09:00:48;;;;;;;67.72;13.45;;;2.10;48.20;;;;;;5052211;28;20201;-70
2021/01/14 09:03:15;;;;;;;67.75;12.07;;;2.10;48.20;;;;;;5052062;28;20226;-70
2021/01/14 09:05:45;;;;;;;69.32;13.60;;;2.10;45.40;;;;;;5051987;28;20205;-70
2021/01/14 09:08:13;;;;;;;69.35;12.85;;;2.10;40.60;;;;;;5051638;28;20212;-71
2021/01/14 09:10:44;;;;;;;70.10;12.60;;;2.10;36.80;;;;;;5052208;28;20228;-70
2021/01/14 09:13:12;;;;;;;71.00;12.60;;;2.10;36.20;;;;;;5051636;28;20255;-72
2021/01/14 09:15:39;;;;;;;70.03;13.27;;;2.20;35.50;;;;;;5052014;28;20214;-71
2021/01/14 09:18:06;;;;;;;66.65;12.35;;;2.20;29.40;;;;;;5051480;28;20205;-70
2021/01/14 09:20:32;;;;;;;65.25;12.27;;;2.20;28.30;;;;;;5051610;28;20209;-70
2021/01/14 09:23:17;;;;;;;69.20;12.40;;;2.20;27.30;;;;;;5049611;28;20206;-70
2021/01/14 09:25:44;;;;;;;66.45;11.95;;;2.20;28.80;;;;;;5051800;28;20209;-70
2021/01/14 09:28:10;;;;;;;66.25;12.10;;;2.30;26.10;;;;;;5051083;28;20213;-70
2021/01/14 09:30:37;;;;;;;67.65;11.63;;;2.30;30.00;;;;;;5051658;28;20210;-70
2021/01/14 09:33:03;;;;;;;69.60;13.70;;;2.30;33.80;;;;;;5051099;28;20226;-71
2021/01/14 09:35:30;;;;;;;67.88;12.75;;;2.40;31.20;;;;;;5090082;22;20292;-71
2021/01/14 09:37:57;;;;;;;69.47;12.60;;;2.40;32.90;;;;;;5049229;28;20237;-70
2021/01/14 09:40:24;;;;;;;67.75;11.73;;;2.40;30.70;;;;;;5051403;28;20214;-70
2021/01/14 09:42:51;;;;;;;69.28;13.15;;;2.50;26.20;;;;;;5051582;28;20202;-70
2021/01/14 09:45:18;;;;;;;66.65;11.13;;;2.50;23.80;;;;;;5051304;28;20274;-71
2021/01/14 09:47:48;;;;;;;65.35;11.32;;;2.50;24.20;;;;;;5051648;28;20244;-71
2021/01/14 09:50:15;;;;;;;66.43;11.77;;;2.60;23.90;;;;;;5051598;28;20205;-70
2021/01/14 09:52:42;;;;;;;66.47;12.77;;;2.70;18.70;;;;;;5051584;28;20320;-69
2021/01/14 09:55:12;;;;;;;65.40;11.75;;;2.70;11.60;;;;;;5051566;28;20252;-70
2021/01/14 09:57:44;;;;;;;65.05;11.70;;;2.70;13.70;;;;;;5051140;28;20237;-70
2021/01/14 10:00:17;;;;;;;65.25;10.93;;;2.80;12.10;;;;;;5051253;28;20676;-69
2021/01/14 10:02:47;;;;;;;69.10;12.25;;;2.80;9.90;;;;;;5052151;28;20210;-70
2021/01/14 10:05:16;;;;;;;65.20;11.15;;;2.90;8.70;;;;;;5052574;28;20225;-70
2021/01/14 10:07:47;;;;;;;67.90;11.95;;;3.00;10.30;;;;;;5056992;28;20209;-69
2021/01/14 10:10:14;;;;;;;65.65;11.32;;;3.10;4.90;;;;;;5063933;28;20270;-69
2021/01/14 10:12:41;;;;;;;65.07;11.50;;;3.10;1.60;;;;;;5051511;28;20234;-69
2021/01/14 10:15:09;;;;;;;67.85;12.20;;;3.20;1.00;;;;;;5051272;28;20278;-69
2021/01/14 10:17:37;;;;;;;67.88;13.07;;;3.20;1.00;;;;;;5051396;28;20267;-70
2021/01/14 10:20:04;;;;;;;65.97;12.00;;;3.20;1.00;;;;;;5051169;28;20230;-69
2021/01/14 10:22:30;;;;;;;66.90;11.02;;;3.20;1.00;;;;;;5051210;28;20339;-70
2021/01/14 10:25:08;;;;;;;69.90;12.77;;;3.20;1.00;;;;;;5050931;28;20543;-71
2021/01/14 10:27:35;;;;;;;65.70;12.20;;;3.10;1.00;;;;;;5050830;28;20213;-69
2021/01/14 10:30:19;;;;;;;67.47;13.63;;;3.10;1.00;;;;;;5051229;28;20210;-70
2021/01/14 10:32:46;;;;;;;68.80;11.45;;;3.10;1.00;;;;;;5051156;28;20711;-70
2021/01/14 10:35:23;;;;;;;65.93;11.10;;;3.20;1.00;;;;;;5050728;28;20801;-71
2021/01/14 10:38:00;;;;;;;65.00;11.13;;;3.20;1.00;;;;;;5050649;28;20297;-69
2021/01/14 10:40:36;;;;;;;66.05;10.02;;;3.20;1.00;;;;;;5052417;28;20205;-70
2021/01/14 10:43:03;;;;;;;64.75;10.95;;;3.20;1.00;;;;;;5040075;28;20210;-70
2021/01/14 10:45:31;;;;;;;63.40;10.18;;;3.20;1.00;;;;;;5034679;28;20261;-69
2021/01/14 10:48:13;;;;;;;65.95;11.25;;;3.10;1.00;;;;;;5034212;28;20214;-70
2021/01/14 10:50:50;;;;;;;76.88;12.10;;;3.10;1.00;;;;;;5034850;28;20214;-69
2021/01/14 10:53:27;;;;;;;65.60;10.15;;;3.00;1.00;;;;;;5034633;28;20230;-69
2021/01/14 10:56:05;;;;;;;67.85;11.05;;;3.00;1.00;;;;;;5034853;28;20558;-70
2021/01/14 10:58:32;;;;;;;68.07;12.68;;;3.00;1.00;;;;;;5034482;28;20216;-70
2021/01/14 11:00:58;;;;;;;64.53;10.93;;;3.00;1.00;;;;;;5034692;28;20617;-69
2021/01/14 11:03:26;;;;;;;75.43;17.80;;;3.00;1.00;;;;;;5034405;28;20207;-70
2021/01/14 11:05:54;;;;;;;68.90;13.80;;;3.10;1.00;;;;;;5034536;28;20304;-69
2021/01/14 11:08:22;;;;;;;65.97;11.35;;;3.10;1.00;;;;;;5034009;28;20210;-70
2021/01/14 11:11:02;;;;;;;66.65;11.75;;;3.10;1.00;;;;;;5034211;28;20297;-69
2021/01/14 11:13:38;;;;;;;64.05;10.00;;;3.00;1.00;;;;;;5033223;28;20728;-70
2021/01/14 11:16:05;;;;;;;65.43;12.20;;;3.00;1.00;;;;;;5034546;28;20210;-71
2021/01/14 11:18:34;;;;;;;66.32;10.38;;;3.00;1.00;;;;;;5033817;28;20210;-70
2021/01/14 11:21:00;;;;;;;66.70;11.73;;;3.00;1.00;;;;;;5033961;28;20680;-71
2021/01/14 11:23:27;;;;;;;65.78;11.45;;;3.00;1.00;;;;;;5033949;28;20206;-70
2021/01/14 11:25:53;;;;;;;65.70;11.13;;;3.00;1.00;;;;;;5034125;28;20210;-70
2021/01/14 11:28:19;;;;;;;68.70;13.32;;;2.90;1.00;;;;;;5033896;28;20214;-70
2021/01/14 11:30:46;;;;;;;76.32;17.95;;;2.90;1.00;;;;;;5033799;28;20242;-70
2021/01/14 11:33:13;;;;;;;64.00;10.38;;;2.90;1.00;;;;;;5033975;28;20308;-70
2021/01/14 11:35:39;;;;;;;65.72;10.68;;;2.80;1.00;;;;;;5033459;28;20230;-70
2021/01/14 11:38:05;;;;;;;71.90;11.48;;;2.80;1.00;;;;;;5033770;28;20206;-70
2021/01/14 11:40:32;;;;;;;62.72;9.00;;;2.80;1.00;;;;;;5033784;28;20293;-71
2021/01/14 11:42:58;;;;;;;63.00;9.32;;;2.80;1.00;;;;;;5034201;28;20237;-71
2021/01/14 11:45:24;;;;;;;66.97;11.15;;;2.90;1.00;;;;;;5034180;28;20226;-71
2021/01/14 11:47:52;;;;;;;62.33;8.50;;;2.90;1.00;;;;;;5053235;28;20750;-71
2021/01/14 11:50:19;;;;;;;65.85;8.27;;;2.90;1.00;;;;;;5053325;28;20210;-71
2021/01/14 11:52:45;;;;;;;64.95;8.70;;;3.00;1.00;;;;;;5053578;28;20233;-72
2021/01/14 11:55:12;;;;;;;63.20;8.77;;;3.00;1.00;;;;;;5053466;28;20229;-71
2021/01/14 11:57:38;;;;;;;63.95;8.45;;;3.00;1.00;;;;;;5053174;28;20680;-72
2021/01/14 12:00:07;;;;;;;60.45;7.55;;;3.10;1.00;;;;;;5042750;28;20256;-70
2021/01/14 12:02:34;;;;;;;62.50;7.93;;;3.20;1.00;;;;;;5033403;28;20637;-69
2021/01/14 12:05:01;;;;;;;60.85;7.85;;;3.20;1.00;;;;;;5033392;28;20630;-70
2021/01/14 12:07:27;;;;;;;64.15;8.20;;;3.30;1.00;;;;;;5037281;28;20260;-70
2021/01/14 12:09:53;;;;;;;61.47;7.80;;;3.50;1.00;;;;;;5053286;28;20236;-70
2021/01/14 12:12:20;;;;;;;63.25;8.30;;;3.60;1.00;;;;;;5037809;28;20759;-70
2021/01/14 12:14:47;;;;;;;65.85;8.65;;;3.60;1.00;;;;;;5033366;28;20363;-70
2021/01/14 12:17:14;;;;;;;65.50;8.80;;;3.70;1.00;;;;;;5032984;28;20373;-71
2021/01/14 12:19:41;;;;;;;65.18;9.27;;;3.80;1.00;;;;;;5032744;28;20202;-71
2021/01/14 12:22:08;;;;;;;61.90;8.15;;;3.80;1.00;;;;;;5033207;28;20241;-70
2021/01/14 12:24:34;;;;;;;62.00;7.32;;;3.80;1.00;;;;;;5033288;28;20261;-70
2021/01/14 12:27:01;;;;;;;66.20;7.47;;;3.90;1.00;;;;;;5033130;28;20214;-71
2021/01/14 12:29:28;;;;;;;60.63;7.72;;;3.90;1.00;;;;;;5032383;28;20210;-71
2021/01/14 12:31:55;;;;;;;62.72;8.13;;;4.00;1.00;;;;;;5032523;28;20206;-73
2021/01/14 12:34:21;;;;;;;61.55;6.85;;;4.00;1.00;;;;;;5032601;28;20268;-70
2021/01/14 12:36:48;;;;;;;63.05;8.07;;;4.00;1.00;;;;;;5032799;28;20206;-73
2021/01/14 12:39:15;;;;;;;61.38;6.97;;;4.00;1.00;;;;;;5032205;28;20233;-72
2021/01/14 12:41:42;;;;;;;67.43;9.38;;;4.00;1.00;;;;;;5032464;28;20202;-70
2021/01/14 12:44:08;;;;;;;63.05;8.00;;;4.00;1.00;;;;;;5032155;28;20257;-72
2021/01/14 12:46:36;;;;;;;61.97;7.28;;;3.90;1.00;;;;;;5032318;28;20229;-71
2021/01/14 12:49:03;;;;;;;62.25;7.20;;;4.00;1.00;;;;;;5032370;28;20203;-71
2021/01/14 12:51:30;;;;;;;62.45;8.10;;;4.00;1.00;;;;;;5052549;28;20579;-71
2021/01/14 12:53:56;;;;;;;63.83;8.38;;;4.10;1.00;;;;;;5052309;28;20604;-71
2021/01/14 12:56:23;;;;;;;70.15;8.60;;;4.10;1.00;;;;;;5052359;28;20694;-72
2021/01/14 12:58:49;;;;;;;62.35;7.55;;;4.10;1.00;;;;;;5052008;28;20210;-71
2021/01/14 13:01:15;;;;;;;61.58;8.80;;;4.20;1.00;;;;;;5051656;28;20217;-70